sensor_id;sensor_type;location;lat;lon;timestamp;pressure;altitude;pressure_sealevel;temperature;humidity
34979;BME280;21185;50.978;13.720;2023-04-25T00:01:48;97425.69;;;12.23;52.04
34979;BME280;21185;50.978;13.720;2023-04-25T00:06:50;97420.88;;;12.20;52.64
34979;BME280;21185;50.978;13.720;2023-04-25T00:11:53;97416.44;;;12.14;52.65
34979;BME280;21185;50.978;13.720;2023-04-25T00:16:55;97424.03;;;12.09;52.88
34979;BME280;21185;50.978;13.720;2023-04-25T00:21:57;97414.41;;;12.03;52.92
34979;BME280;21185;50.978;13.720;2023-04-25T00:27:00;97419.19;;;11.99;53.04
34979;BME280;21185;50.978;13.720;2023-04-25T00:32:02;97421.75;;;11.93;53.41
34979;BME280;21185;50.978;13.720;2023-04-25T00:37:04;97420.91;;;11.86;53.63
34979;BME280;21185;50.978;13.720;2023-04-25T00:42:06;97419.06;;;11.80;53.60
34979;BME280;21185;50.978;13.720;2023-04-25T00:47:10;97414.22;;;11.77;53.86
34979;BME280;21185;50.978;13.720;2023-04-25T00:52:12;97416.19;;;11.75;53.66
34979;BME280;21185;50.978;13.720;2023-04-25T00:57:14;97412.97;;;11.73;53.96
34979;BME280;21185;50.978;13.720;2023-04-25T01:02:17;97412.56;;;11.69;53.88
34979;BME280;21185;50.978;13.720;2023-04-25T01:07:19;97415.13;;;11.62;53.79
34979;BME280;21185;50.978;13.720;2023-04-25T01:12:22;97411.66;;;11.55;53.78
34979;BME280;21185;50.978;13.720;2023-04-25T01:17:24;97418.41;;;11.50;53.83
34979;BME280;21185;50.978;13.720;2023-04-25T01:22:27;97414.16;;;11.42;53.92
34979;BME280;21185;50.978;13.720;2023-04-25T01:27:29;97418.13;;;11.38;53.83
34979;BME280;21185;50.978;13.720;2023-04-25T01:32:31;97410.91;;;11.33;53.89
34979;BME280;21185;50.978;13.720;2023-04-25T01:37:41;97412.63;;;11.26;53.74
34979;BME280;21185;50.978;13.720;2023-04-25T01:42:45;97412.81;;;11.25;53.72
34979;BME280;21185;50.978;13.720;2023-04-25T01:47:47;97419.00;;;11.24;53.85
34979;BME280;21185;50.978;13.720;2023-04-25T01:52:51;97415.19;;;11.20;53.73
34979;BME280;21185;50.978;13.720;2023-04-25T01:57:53;97416.72;;;11.14;53.58
34979;BME280;21185;50.978;13.720;2023-04-25T02:03:05;97421.69;;;11.09;53.58
34979;BME280;21185;50.978;13.720;2023-04-25T02:08:09;97413.66;;;11.04;53.65
34979;BME280;21185;50.978;13.720;2023-04-25T02:13:11;97413.41;;;10.99;53.56
34979;BME280;21185;50.978;13.720;2023-04-25T02:18:31;97419.13;;;10.94;53.82
34979;BME280;21185;50.978;13.720;2023-04-25T02:23:34;97412.91;;;10.89;53.66
34979;BME280;21185;50.978;13.720;2023-04-25T02:28:36;97410.84;;;10.84;53.66
34979;BME280;21185;50.978;13.720;2023-04-25T02:33:38;97412.03;;;10.82;53.66
34979;BME280;21185;50.978;13.720;2023-04-25T02:38:41;97406.84;;;10.82;53.77
34979;BME280;21185;50.978;13.720;2023-04-25T02:43:42;97399.16;;;10.74;53.71
34979;BME280;21185;50.978;13.720;2023-04-25T02:48:44;97408.13;;;10.71;53.96
34979;BME280;21185;50.978;13.720;2023-04-25T02:53:46;97405.72;;;10.69;53.87
34979;BME280;21185;50.978;13.720;2023-04-25T02:58:48;97401.69;;;10.67;53.83
34979;BME280;21185;50.978;13.720;2023-04-25T03:03:50;97403.66;;;10.65;53.65
34979;BME280;21185;50.978;13.720;2023-04-25T03:08:53;97408.59;;;10.60;54.02
34979;BME280;21185;50.978;13.720;2023-04-25T03:13:55;97400.38;;;10.56;53.94
34979;BME280;21185;50.978;13.720;2023-04-25T03:18:57;97395.38;;;10.55;53.91
34979;BME280;21185;50.978;13.720;2023-04-25T03:24:02;97395.94;;;10.50;53.97
34979;BME280;21185;50.978;13.720;2023-04-25T03:29:04;97393.88;;;10.46;54.01
34979;BME280;21185;50.978;13.720;2023-04-25T03:34:08;97393.84;;;10.39;54.06
34979;BME280;21185;50.978;13.720;2023-04-25T03:39:10;97393.13;;;10.30;53.91
34979;BME280;21185;50.978;13.720;2023-04-25T03:44:14;97394.31;;;10.28;54.27
34979;BME280;21185;50.978;13.720;2023-04-25T03:49:16;97393.69;;;10.26;54.23
34979;BME280;21185;50.978;13.720;2023-04-25T03:54:32;97402.44;;;10.25;54.19
34979;BME280;21185;50.978;13.720;2023-04-25T03:59:44;97401.66;;;10.24;54.13
34979;BME280;21185;50.978;13.720;2023-04-25T04:04:48;97396.63;;;10.23;54.13
34979;BME280;21185;50.978;13.720;2023-04-25T04:09:51;97395.84;;;10.22;54.15
34979;BME280;21185;50.978;13.720;2023-04-25T04:15:01;97402.00;;;10.21;54.27
34979;BME280;21185;50.978;13.720;2023-04-25T04:20:04;97407.19;;;10.21;54.32
34979;BME280;21185;50.978;13.720;2023-04-25T04:25:10;97402.81;;;10.22;54.45
34979;BME280;21185;50.978;13.720;2023-04-25T04:30:32;97414.78;;;10.23;54.45
34979;BME280;21185;50.978;13.720;2023-04-25T04:35:41;97416.03;;;10.27;54.69
34979;BME280;21185;50.978;13.720;2023-04-25T04:40:44;97421.31;;;10.33;54.56
34979;BME280;21185;50.978;13.720;2023-04-25T04:46:12;97415.97;;;10.42;54.70
34979;BME280;21185;50.978;13.720;2023-04-25T04:51:40;97416.31;;;10.53;54.69
34979;BME280;21185;50.978;13.720;2023-04-25T04:57:03;97421.22;;;10.63;54.73
34979;BME280;21185;50.978;13.720;2023-04-25T05:02:31;97418.88;;;10.68;54.74
34979;BME280;21185;50.978;13.720;2023-04-25T05:07:52;97425.38;;;10.79;54.58
34979;BME280;21185;50.978;13.720;2023-04-25T05:13:02;97422.28;;;10.90;54.73
34979;BME280;21185;50.978;13.720;2023-04-25T05:18:04;97419.38;;;10.99;54.80
34979;BME280;21185;50.978;13.720;2023-04-25T05:23:41;97418.03;;;11.03;54.66
34979;BME280;21185;50.978;13.720;2023-04-25T05:29:03;97415.44;;;11.03;54.80
34979;BME280;21185;50.978;13.720;2023-04-25T05:34:20;97420.56;;;10.97;54.88
34979;BME280;21185;50.978;13.720;2023-04-25T05:39:31;97416.53;;;10.94;54.83
34979;BME280;21185;50.978;13.720;2023-04-25T05:44:55;97423.16;;;10.97;55.17
34979;BME280;21185;50.978;13.720;2023-04-25T05:50:15;97433.00;;;11.01;54.88
34979;BME280;21185;50.978;13.720;2023-04-25T05:55:24;97425.56;;;10.98;54.85
34979;BME280;21185;50.978;13.720;2023-04-25T06:00:27;97435.59;;;11.01;54.85
34979;BME280;21185;50.978;13.720;2023-04-25T06:05:29;97422.16;;;10.98;54.83
34979;BME280;21185;50.978;13.720;2023-04-25T06:10:33;97428.91;;;10.92;54.81
34979;BME280;21185;50.978;13.720;2023-04-25T06:15:35;97432.06;;;10.88;54.91
34979;BME280;21185;50.978;13.720;2023-04-25T06:20:37;97434.72;;;10.94;54.71
34979;BME280;21185;50.978;13.720;2023-04-25T06:25:39;97429.59;;;11.01;54.41
34979;BME280;21185;50.978;13.720;2023-04-25T06:30:41;97436.44;;;11.09;54.19
34979;BME280;21185;50.978;13.720;2023-04-25T06:35:47;97427.72;;;11.16;53.94
34979;BME280;21185;50.978;13.720;2023-04-25T06:40:53;97433.84;;;11.30;53.76
34979;BME280;21185;50.978;13.720;2023-04-25T06:45:56;97426.97;;;11.44;53.66
34979;BME280;21185;50.978;13.720;2023-04-25T06:51:01;97421.25;;;11.55;53.43
34979;BME280;21185;50.978;13.720;2023-04-25T06:56:03;97422.53;;;11.65;53.26
34979;BME280;21185;50.978;13.720;2023-04-25T07:01:25;97427.31;;;11.62;53.03
34979;BME280;21185;50.978;13.720;2023-04-25T07:06:27;97427.72;;;11.65;53.19
34979;BME280;21185;50.978;13.720;2023-04-25T07:11:31;97428.09;;;11.84;52.64
34979;BME280;21185;50.978;13.720;2023-04-25T07:16:33;97428.31;;;11.89;52.51
34979;BME280;21185;50.978;13.720;2023-04-25T07:21:36;97437.59;;;11.77;52.74
34979;BME280;21185;50.978;13.720;2023-04-25T07:26:39;97440.97;;;11.71;52.68
34979;BME280;21185;50.978;13.720;2023-04-25T07:32:00;97444.94;;;11.66;52.66
34979;BME280;21185;50.978;13.720;2023-04-25T07:37:03;97441.72;;;11.64;52.65
34979;BME280;21185;50.978;13.720;2023-04-25T07:42:13;97437.91;;;11.88;52.58
34979;BME280;21185;50.978;13.720;2023-04-25T07:47:18;97443.41;;;12.07;51.48
34979;BME280;21185;50.978;13.720;2023-04-25T07:52:24;97433.47;;;12.17;50.73
34979;BME280;21185;50.978;13.720;2023-04-25T07:57:35;97426.72;;;12.29;49.91
34979;BME280;21185;50.978;13.720;2023-04-25T08:02:37;97438.91;;;12.22;49.38
34979;BME280;21185;50.978;13.720;2023-04-25T08:07:41;97443.91;;;12.23;49.41
34979;BME280;21185;50.978;13.720;2023-04-25T08:12:45;97447.88;;;12.19;48.40
34979;BME280;21185;50.978;13.720;2023-04-25T08:17:47;97447.31;;;12.24;48.37
34979;BME280;21185;50.978;13.720;2023-04-25T08:22:49;97457.16;;;12.35;47.99
34979;BME280;21185;50.978;13.720;2023-04-25T08:28:10;97455.38;;;12.36;48.05
34979;BME280;21185;50.978;13.720;2023-04-25T08:33:13;97465.56;;;12.30;48.60
34979;BME280;21185;50.978;13.720;2023-04-25T08:38:34;97471.94;;;12.28;49.02
34979;BME280;21185;50.978;13.720;2023-04-25T08:43:42;97473.97;;;12.32;49.09
34979;BME280;21185;50.978;13.720;2023-04-25T08:48:46;97476.72;;;12.24;48.88
34979;BME280;21185;50.978;13.720;2023-04-25T08:53:52;97484.63;;;12.10;48.98
34979;BME280;21185;50.978;13.720;2023-04-25T08:58:59;97487.38;;;12.02;49.28
34979;BME280;21185;50.978;13.720;2023-04-25T09:04:03;97502.34;;;11.93;49.36
34979;BME280;21185;50.978;13.720;2023-04-25T09:09:08;97502.34;;;11.93;49.59
34979;BME280;21185;50.978;13.720;2023-04-25T09:14:17;97508.38;;;12.00;49.69
34979;BME280;21185;50.978;13.720;2023-04-25T09:19:35;97508.94;;;11.95;49.92
34979;BME280;21185;50.978;13.720;2023-04-25T09:25:03;97513.16;;;11.96;50.17
34979;BME280;21185;50.978;13.720;2023-04-25T09:30:10;97533.38;;;12.01;50.27
34979;BME280;21185;50.978;13.720;2023-04-25T09:35:43;97531.59;;;12.02;50.37
34979;BME280;21185;50.978;13.720;2023-04-25T09:40:58;97534.63;;;12.05;50.59
34979;BME280;21185;50.978;13.720;2023-04-25T09:46:14;97538.81;;;12.06;50.35
34979;BME280;21185;50.978;13.720;2023-04-25T09:51:25;97549.50;;;11.90;50.53
34979;BME280;21185;50.978;13.720;2023-04-25T09:56:35;97547.75;;;11.76;50.50
34979;BME280;21185;50.978;13.720;2023-04-25T10:01:40;97542.56;;;11.76;50.43
34979;BME280;21185;50.978;13.720;2023-04-25T10:06:49;97547.09;;;11.88;50.30
34979;BME280;21185;50.978;13.720;2023-04-25T10:11:52;97542.84;;;12.09;50.23
34979;BME280;21185;50.978;13.720;2023-04-25T10:16:55;97547.41;;;12.35;50.34
34979;BME280;21185;50.978;13.720;2023-04-25T10:22:18;97560.88;;;12.45;50.64
34979;BME280;21185;50.978;13.720;2023-04-25T10:27:22;97568.94;;;12.50;50.59
34979;BME280;21185;50.978;13.720;2023-04-25T10:32:24;97569.19;;;12.61;50.55
34979;BME280;21185;50.978;13.720;2023-04-25T10:37:26;97565.06;;;12.74;50.18
34979;BME280;21185;50.978;13.720;2023-04-25T10:42:28;97564.28;;;12.80;50.43
34979;BME280;21185;50.978;13.720;2023-04-25T10:47:35;97563.69;;;12.84;50.61
34979;BME280;21185;50.978;13.720;2023-04-25T10:52:41;97575.66;;;12.72;50.88
34979;BME280;21185;50.978;13.720;2023-04-25T10:57:44;97568.59;;;12.59;51.05
34979;BME280;21185;50.978;13.720;2023-04-25T11:02:52;97572.06;;;12.39;51.21
34979;BME280;21185;50.978;13.720;2023-04-25T11:07:55;97590.31;;;12.17;51.54
34979;BME280;21185;50.978;13.720;2023-04-25T11:13:09;97595.97;;;11.99;51.87
34979;BME280;21185;50.978;13.720;2023-04-25T11:18:16;97600.25;;;11.86;52.22
34979;BME280;21185;50.978;13.720;2023-04-25T11:23:18;97605.59;;;11.78;52.43
34979;BME280;21185;50.978;13.720;2023-04-25T11:28:21;97610.22;;;11.82;52.56
34979;BME280;21185;50.978;13.720;2023-04-25T11:33:28;97622.66;;;11.87;52.69
34979;BME280;21185;50.978;13.720;2023-04-25T11:38:30;97625.00;;;11.82;52.67
34979;BME280;21185;50.978;13.720;2023-04-25T11:43:31;97629.69;;;11.72;53.00
34979;BME280;21185;50.978;13.720;2023-04-25T11:48:42;97635.50;;;11.74;53.01
34979;BME280;21185;50.978;13.720;2023-04-25T11:53:44;97634.25;;;11.84;52.85
34979;BME280;21185;50.978;13.720;2023-04-25T11:59:01;97637.69;;;11.91;53.04
34979;BME280;21185;50.978;13.720;2023-04-25T12:04:11;97641.97;;;11.99;52.92
34979;BME280;21185;50.978;13.720;2023-04-25T12:09:16;97642.91;;;12.13;52.91
34979;BME280;21185;50.978;13.720;2023-04-25T12:14:21;97645.31;;;12.14;52.74
34979;BME280;21185;50.978;13.720;2023-04-25T12:19:29;97650.81;;;12.05;52.65
34979;BME280;21185;50.978;13.720;2023-04-25T12:24:34;97658.06;;;11.88;52.24
34979;BME280;21185;50.978;13.720;2023-04-25T12:29:50;97646.88;;;11.87;51.83
34979;BME280;21185;50.978;13.720;2023-04-25T12:34:52;97650.03;;;12.04;51.95
34979;BME280;21185;50.978;13.720;2023-04-25T12:39:54;97647.34;;;12.19;51.48
34979;BME280;21185;50.978;13.720;2023-04-25T12:44:56;97647.03;;;12.28;51.32
34979;BME280;21185;50.978;13.720;2023-04-25T12:49:58;97652.72;;;12.39;51.17
34979;BME280;21185;50.978;13.720;2023-04-25T12:55:00;97652.94;;;12.44;50.96
34979;BME280;21185;50.978;13.720;2023-04-25T13:00:02;97648.63;;;12.29;50.37
34979;BME280;21185;50.978;13.720;2023-04-25T13:05:06;97649.44;;;12.30;50.43
34979;BME280;21185;50.978;13.720;2023-04-25T13:10:08;97659.38;;;12.20;50.19
34979;BME280;21185;50.978;13.720;2023-04-25T13:15:10;97657.63;;;12.06;50.01
34979;BME280;21185;50.978;13.720;2023-04-25T13:20:13;97667.16;;;11.98;50.09
34979;BME280;21185;50.978;13.720;2023-04-25T13:25:16;97671.75;;;11.96;50.37
34979;BME280;21185;50.978;13.720;2023-04-25T13:30:18;97675.53;;;11.94;50.40
34979;BME280;21185;50.978;13.720;2023-04-25T13:35:20;97688.09;;;11.90;50.54
34979;BME280;21185;50.978;13.720;2023-04-25T13:40:22;97704.59;;;11.83;50.52
34979;BME280;21185;50.978;13.720;2023-04-25T13:45:26;97707.50;;;11.58;50.23
34979;BME280;21185;50.978;13.720;2023-04-25T13:50:28;97710.13;;;11.44;49.88
34979;BME280;21185;50.978;13.720;2023-04-25T13:55:34;97719.19;;;11.33;49.91
34979;BME280;21185;50.978;13.720;2023-04-25T14:00:40;97717.47;;;11.25;50.00
34979;BME280;21185;50.978;13.720;2023-04-25T14:05:45;97727.69;;;11.27;50.10
34979;BME280;21185;50.978;13.720;2023-04-25T14:10:47;97724.66;;;11.23;49.87
34979;BME280;21185;50.978;13.720;2023-04-25T14:15:49;97728.59;;;11.19;49.52
34979;BME280;21185;50.978;13.720;2023-04-25T14:20:52;97738.00;;;11.20;49.61
34979;BME280;21185;50.978;13.720;2023-04-25T14:25:53;97730.28;;;11.27;49.51
34979;BME280;21185;50.978;13.720;2023-04-25T14:30:55;97734.84;;;11.40;49.35
34979;BME280;21185;50.978;13.720;2023-04-25T14:35:58;97728.38;;;11.50;49.15
34979;BME280;21185;50.978;13.720;2023-04-25T14:41:00;97730.78;;;11.66;49.06
34979;BME280;21185;50.978;13.720;2023-04-25T14:46:02;97724.94;;;11.94;49.05
34979;BME280;21185;50.978;13.720;2023-04-25T14:51:05;97734.47;;;12.08;48.95
34979;BME280;21185;50.978;13.720;2023-04-25T14:56:07;97731.63;;;12.03;48.93
34979;BME280;21185;50.978;13.720;2023-04-25T15:01:09;97739.16;;;11.98;48.76
34979;BME280;21185;50.978;13.720;2023-04-25T15:06:12;97737.84;;;11.87;48.79
34979;BME280;21185;50.978;13.720;2023-04-25T15:11:14;97743.38;;;11.99;48.96
34979;BME280;21185;50.978;13.720;2023-04-25T15:16:16;97748.22;;;12.02;48.93
34979;BME280;21185;50.978;13.720;2023-04-25T15:21:18;97750.56;;;11.97;48.96
34979;BME280;21185;50.978;13.720;2023-04-25T15:26:20;97763.41;;;11.84;49.19
34979;BME280;21185;50.978;13.720;2023-04-25T15:31:22;97769.41;;;11.69;48.78
34979;BME280;21185;50.978;13.720;2023-04-25T15:36:24;97771.03;;;11.56;48.89
34979;BME280;21185;50.978;13.720;2023-04-25T15:41:27;97775.06;;;11.44;47.92
34979;BME280;21185;50.978;13.720;2023-04-25T15:46:30;97772.38;;;11.37;47.76
34979;BME280;21185;50.978;13.720;2023-04-25T15:51:32;97783.03;;;11.27;47.36
34979;BME280;21185;50.978;13.720;2023-04-25T15:56:34;97776.94;;;11.20;46.91
34979;BME280;21185;50.978;13.720;2023-04-25T16:01:36;97783.28;;;11.18;46.85
34979;BME280;21185;50.978;13.720;2023-04-25T16:06:38;97785.09;;;11.17;46.77
34979;BME280;21185;50.978;13.720;2023-04-25T16:11:40;97782.38;;;11.11;46.27
34979;BME280;21185;50.978;13.720;2023-04-25T16:16:42;97782.38;;;11.11;46.33
34979;BME280;21185;50.978;13.720;2023-04-25T16:21:45;97787.22;;;11.14;46.48
34979;BME280;21185;50.978;13.720;2023-04-25T16:26:47;97784.28;;;11.17;46.38
34979;BME280;21185;50.978;13.720;2023-04-25T16:31:49;97786.97;;;11.23;46.42
34979;BME280;21185;50.978;13.720;2023-04-25T16:36:51;97791.81;;;11.26;46.46
34979;BME280;21185;50.978;13.720;2023-04-25T16:41:56;97795.03;;;11.28;46.49
34979;BME280;21185;50.978;13.720;2023-04-25T16:46:57;97798.09;;;11.32;46.68
34979;BME280;21185;50.978;13.720;2023-04-25T16:52:00;97803.47;;;11.30;46.72
34979;BME280;21185;50.978;13.720;2023-04-25T16:57:01;97806.94;;;11.23;46.26
34979;BME280;21185;50.978;13.720;2023-04-25T17:02:09;97809.25;;;11.18;46.43
34979;BME280;21185;50.978;13.720;2023-04-25T17:07:13;97809.97;;;11.12;46.05
34979;BME280;21185;50.978;13.720;2023-04-25T17:12:17;97825.00;;;11.01;45.04
34979;BME280;21185;50.978;13.720;2023-04-25T17:17:20;97822.13;;;10.96;44.60
34979;BME280;21185;50.978;13.720;2023-04-25T17:22:22;97830.25;;;10.93;44.63
34979;BME280;21185;50.978;13.720;2023-04-25T17:27:24;97838.38;;;10.90;44.18
34979;BME280;21185;50.978;13.720;2023-04-25T17:32:27;97839.53;;;10.88;44.06
34979;BME280;21185;50.978;13.720;2023-04-25T17:37:29;97850.09;;;10.86;44.17
34979;BME280;21185;50.978;13.720;2023-04-25T17:42:31;97851.25;;;10.84;44.15
34979;BME280;21185;50.978;13.720;2023-04-25T17:47:33;97854.19;;;10.81;44.51
34979;BME280;21185;50.978;13.720;2023-04-25T17:52:35;97856.69;;;10.74;44.54
34979;BME280;21185;50.978;13.720;2023-04-25T17:57:39;97865.97;;;10.68;44.70
34979;BME280;21185;50.978;13.720;2023-04-25T18:02:41;97879.78;;;10.61;44.38
34979;BME280;21185;50.978;13.720;2023-04-25T18:07:43;97876.09;;;10.55;44.29
34979;BME280;21185;50.978;13.720;2023-04-25T18:12:45;97880.66;;;10.53;44.27
34979;BME280;21185;50.978;13.720;2023-04-25T18:17:47;97880.19;;;10.50;44.40
34979;BME280;21185;50.978;13.720;2023-04-25T18:22:49;97888.31;;;10.47;44.50
34979;BME280;21185;50.978;13.720;2023-04-25T18:27:51;97890.00;;;10.40;44.39
34979;BME280;21185;50.978;13.720;2023-04-25T18:32:54;97899.09;;;10.35;44.56
34979;BME280;21185;50.978;13.720;2023-04-25T18:37:56;97893.09;;;10.35;44.65
34979;BME280;21185;50.978;13.720;2023-04-25T18:42:59;97909.81;;;10.32;44.59
34979;BME280;21185;50.978;13.720;2023-04-25T18:48:00;97907.72;;;10.28;44.73
34979;BME280;21185;50.978;13.720;2023-04-25T18:53:03;97924.94;;;10.21;44.74
34979;BME280;21185;50.978;13.720;2023-04-25T18:58:05;97927.53;;;10.13;44.84
34979;BME280;21185;50.978;13.720;2023-04-25T19:03:09;97928.19;;;10.06;44.82
34979;BME280;21185;50.978;13.720;2023-04-25T19:08:11;97940.84;;;10.01;44.88
34979;BME280;21185;50.978;13.720;2023-04-25T19:13:13;97941.69;;;9.94;45.09
34979;BME280;21185;50.978;13.720;2023-04-25T19:18:15;97942.97;;;9.90;45.28
34979;BME280;21185;50.978;13.720;2023-04-25T19:23:18;97938.13;;;9.87;45.46
34979;BME280;21185;50.978;13.720;2023-04-25T19:28:20;97953.03;;;9.85;45.72
34979;BME280;21185;50.978;13.720;2023-04-25T19:33:23;97943.16;;;9.80;45.88
34979;BME280;21185;50.978;13.720;2023-04-25T19:38:26;97942.69;;;9.77;45.83
34979;BME280;21185;50.978;13.720;2023-04-25T19:43:28;97958.72;;;9.72;46.08
34979;BME280;21185;50.978;13.720;2023-04-25T19:48:31;97957.44;;;9.68;46.18
34979;BME280;21185;50.978;13.720;2023-04-25T19:53:33;97961.31;;;9.64;46.28
34979;BME280;21185;50.978;13.720;2023-04-25T19:58:35;97965.22;;;9.60;46.31
34979;BME280;21185;50.978;13.720;2023-04-25T20:03:37;97962.13;;;9.56;46.23
34979;BME280;21185;50.978;13.720;2023-04-25T20:08:39;97964.09;;;9.54;46.26
34979;BME280;21185;50.978;13.720;2023-04-25T20:13:41;97960.84;;;9.52;46.51
34979;BME280;21185;50.978;13.720;2023-04-25T20:18:45;97958.59;;;9.49;46.68
34979;BME280;21185;50.978;13.720;2023-04-25T20:23:48;97976.88;;;9.48;46.65
34979;BME280;21185;50.978;13.720;2023-04-25T20:28:50;97988.53;;;9.44;46.91
34979;BME280;21185;50.978;13.720;2023-04-25T20:33:53;97989.97;;;9.38;46.99
34979;BME280;21185;50.978;13.720;2023-04-25T20:38:54;97994.69;;;9.34;47.16
34979;BME280;21185;50.978;13.720;2023-04-25T20:43:56;97994.19;;;9.31;46.88
34979;BME280;21185;50.978;13.720;2023-04-25T20:48:58;97993.53;;;9.29;47.01
34979;BME280;21185;50.978;13.720;2023-04-25T20:54:02;97996.28;;;9.27;47.07
34979;BME280;21185;50.978;13.720;2023-04-25T20:59:04;97993.06;;;9.25;47.04
34979;BME280;21185;50.978;13.720;2023-04-25T21:04:06;97987.38;;;9.22;46.96
34979;BME280;21185;50.978;13.720;2023-04-25T21:09:09;97989.66;;;9.17;46.99
34979;BME280;21185;50.978;13.720;2023-04-25T21:14:11;98009.69;;;9.15;47.09
34979;BME280;21185;50.978;13.720;2023-04-25T21:19:13;98011.31;;;9.16;47.33
34979;BME280;21185;50.978;13.720;2023-04-25T21:24:15;98000.31;;;9.14;47.35
34979;BME280;21185;50.978;13.720;2023-04-25T21:29:17;97998.84;;;9.11;47.58
34979;BME280;21185;50.978;13.720;2023-04-25T21:34:19;98006.94;;;9.08;47.41
34979;BME280;21185;50.978;13.720;2023-04-25T21:39:21;98007.91;;;9.07;47.62
34979;BME280;21185;50.978;13.720;2023-04-25T21:44:24;98010.50;;;9.07;47.68
34979;BME280;21185;50.978;13.720;2023-04-25T21:49:26;98004.50;;;9.06;47.57
34979;BME280;21185;50.978;13.720;2023-04-25T21:54:30;98012.28;;;9.06;47.78
34979;BME280;21185;50.978;13.720;2023-04-25T21:59:32;98016.81;;;9.04;47.83
34979;BME280;21185;50.978;13.720;2023-04-25T22:04:36;98017.78;;;9.03;47.87
34979;BME280;21185;50.978;13.720;2023-04-25T22:09:39;98023.75;;;9.04;48.00
34979;BME280;21185;50.978;13.720;2023-04-25T22:14:55;98034.91;;;9.04;48.04
34979;BME280;21185;50.978;13.720;2023-04-25T22:19:57;98031.69;;;9.02;48.34
34979;BME280;21185;50.978;13.720;2023-04-25T22:25:00;98045.91;;;8.98;48.22
34979;BME280;21185;50.978;13.720;2023-04-25T22:30:02;98051.38;;;8.95;48.44
34979;BME280;21185;50.978;13.720;2023-04-25T22:35:05;98057.53;;;8.94;48.88
34979;BME280;21185;50.978;13.720;2023-04-25T22:40:08;98063.84;;;8.92;49.26
34979;BME280;21185;50.978;13.720;2023-04-25T22:45:11;98066.88;;;8.87;49.85
34979;BME280;21185;50.978;13.720;2023-04-25T22:50:13;98066.53;;;8.82;50.15
34979;BME280;21185;50.978;13.720;2023-04-25T22:55:17;98070.09;;;8.81;50.40
34979;BME280;21185;50.978;13.720;2023-04-25T23:00:19;98068.47;;;8.80;50.77
34979;BME280;21185;50.978;13.720;2023-04-25T23:05:22;98061.69;;;8.79;50.95
34979;BME280;21185;50.978;13.720;2023-04-25T23:10:26;98068.13;;;8.75;51.13
34979;BME280;21185;50.978;13.720;2023-04-25T23:15:28;98075.41;;;8.71;51.42
34979;BME280;21185;50.978;13.720;2023-04-25T23:20:33;98078.28;;;8.68;51.38
34979;BME280;21185;50.978;13.720;2023-04-25T23:25:38;98077.78;;;8.65;51.77
34979;BME280;21185;50.978;13.720;2023-04-25T23:30:44;98086.81;;;8.61;51.82
34979;BME280;21185;50.978;13.720;2023-04-25T23:35:46;98090.06;;;8.63;51.83
34979;BME280;21185;50.978;13.720;2023-04-25T23:40:48;98088.59;;;8.60;51.95
34979;BME280;21185;50.978;13.720;2023-04-25T23:45:49;98091.34;;;8.59;52.13
34979;BME280;21185;50.978;13.720;2023-04-25T23:50:51;98091.66;;;8.56;52.34
34979;BME280;21185;50.978;13.720;2023-04-25T23:55:53;98104.88;;;8.53;52.76
